Terminal Aerodrome Forecast
Issued by NWS

Home | Current Version | Previous Version | Text Only | Print | Product List | Glossary On
Versions: 1 2 3 4 5 6 7 8 9 10 11 12
323
FTUS46 KPDT 301720
TAFBDN
TAF
KBDN 301720Z 3018/0118 35006KT P6SM SCT030
     FM302100 35012G18KT P6SM SCT050
     FM010300 02006KT P6SM FEW060
     FM010900 VRB03KT P6SM SKC=

USA.gov is the U.S. government's official web portal to all federal, state and local government web resources and services.